메인 페이지
METAR-TAF:

METAR-TAF

공항 :

Jijel, 알제리

위도: 36-53N, 경도: 005-49E, 고도: 2m

현재 날씨관측

예보는 29분 전, 09:00시(UTC)에 발표되었습니다.
북북서4kt
온도 30°C
습도 33%
기압 1004 hPa
시정 10km 이상
1500m 미만 상공 구름 및 적란운 없음

METAR: DAAV 040900Z 34004KT CAVOK 30/12 Q1004

시각: 10:29 (09:29 UTC)

예보

예보는 4 시간 29분 전, 05:00시(UTC)에 발표되었습니다.
예보 대상 시간: 04일 06시부터 05일 06시까지 (UTC)
북북동8kt
시정 10km 이상
고도 2300ft 상공 구름 조금
전환 중
04일 07시부터 04일 09시까지 (UTC)
북북서8kt

TAF: DAAV 040500Z 0406/0506 02008KT 9999 FEW023 BECMG 0407/0409 34008KT

4,000개 이상의 공항 관측 자료 및 예보 (METAR 및 TAF 보고).

지도상에서 검색 가능한 기상관측소가 노란 점과 빨간 점으로 표시되어 있습니다.

기상관측소 명을 보려면 표시 위로 마우스를 이동하세요.

날씨 관측과 예보를 보려면 클릭하세요.

지도 변경 : 확대하려면 엑스 표시가 있는 녹색 버튼, 축소하려면 빼기 표시가 있는 녹색 버튼, 다음 페이지의 지도를 보려면 녹색 화살표를 클릭하세요.


METAR-TAF: